createdAt,value
2018-06-19T00:02:03.168Z,24.10
2018-06-19T00:04:31.215Z,24.10
2018-06-19T00:06:59.271Z,24.10
2018-06-19T00:09:27.321Z,24.10
2018-06-19T00:11:55.447Z,24.10
2018-06-19T00:14:23.595Z,24.10
2018-06-19T00:16:51.771Z,24.10
2018-06-19T00:19:19.894Z,24.10
2018-06-19T00:21:50.572Z,24.10
2018-06-19T00:24:18.645Z,24.10
2018-06-19T00:26:46.713Z,24.10
2018-06-19T00:29:14.820Z,24.10
2018-06-19T00:31:42.888Z,24.10
2018-06-19T00:34:10.964Z,24.10
2018-06-19T00:36:39.149Z,24.10
2018-06-19T00:39:08.762Z,24.10
2018-06-19T00:41:36.896Z,24.10
2018-06-19T00:44:04.959Z,24.10
2018-06-19T00:46:34.084Z,24.10
2018-06-19T00:51:30.005Z,24.10
2018-06-19T00:53:58.148Z,24.00
2018-06-19T00:56:37.979Z,24.00
2018-06-19T00:59:06.056Z,24.00
2018-06-19T01:01:34.108Z,24.00
2018-06-19T01:04:02.184Z,24.00
2018-06-19T01:06:30.247Z,24.00
2018-06-19T01:08:58.336Z,24.00
2018-06-19T01:11:26.399Z,24.00
2018-06-19T01:13:54.452Z,24.00
2018-06-19T01:16:22.516Z,24.00
2018-06-19T01:18:50.588Z,24.00
2018-06-19T01:21:18.680Z,24.00
2018-06-19T01:23:46.779Z,24.00
2018-06-19T01:26:14.897Z,24.00
2018-06-19T01:28:43.039Z,24.00
2018-06-19T01:31:11.028Z,24.00
2018-06-19T01:33:39.132Z,24.00
2018-06-19T01:36:07.184Z,24.00
2018-06-19T01:38:35.240Z,23.90
2018-06-19T01:43:31.232Z,23.90
2018-06-19T01:45:59.315Z,23.90
2018-06-19T01:48:27.408Z,23.90
2018-06-19T01:50:55.539Z,23.90
2018-06-19T01:53:23.602Z,23.90
2018-06-19T01:55:51.652Z,23.90
2018-06-19T01:58:19.852Z,23.90
2018-06-19T02:00:47.927Z,23.90
2018-06-19T02:03:16.068Z,23.90
2018-06-19T02:05:44.164Z,23.90
2018-06-19T02:08:12.370Z,23.90
2018-06-19T02:10:40.437Z,23.90
2018-06-19T02:13:08.589Z,23.90
2018-06-19T02:15:36.640Z,23.90
2018-06-19T02:18:04.880Z,23.90
2018-06-19T02:20:32.948Z,23.90
2018-06-19T02:23:01.020Z,23.90
2018-06-19T02:25:29.085Z,23.90
2018-06-19T02:27:57.301Z,23.90
2018-06-19T02:30:25.361Z,23.90
2018-06-19T02:32:53.425Z,23.80
2018-06-19T02:35:21.558Z,23.90
2018-06-19T02:37:49.650Z,23.80
2018-06-19T02:40:17.798Z,23.80
2018-06-19T02:42:45.905Z,23.80
2018-06-19T02:45:13.969Z,23.80
2018-06-19T02:47:42.026Z,23.80
2018-06-19T02:50:10.080Z,23.80
2018-06-19T02:52:38.227Z,23.80
2018-06-19T02:55:06.279Z,23.80
2018-06-19T02:57:34.336Z,23.80
2018-06-19T03:00:02.392Z,23.80
2018-06-19T03:02:30.478Z,23.80
2018-06-19T03:04:58.540Z,23.80
2018-06-19T03:07:26.653Z,23.80
2018-06-19T03:09:54.789Z,23.80
2018-06-19T03:12:22.993Z,23.80
2018-06-19T03:14:51.167Z,23.80
2018-06-19T03:17:19.284Z,23.80
2018-06-19T03:19:47.408Z,23.80
2018-06-19T03:22:15.521Z,23.80
2018-06-19T03:24:43.580Z,23.70
2018-06-19T03:27:11.844Z,23.70
2018-06-19T03:29:39.916Z,23.70
2018-06-19T03:32:07.981Z,23.70
2018-06-19T03:34:36.072Z,23.70
2018-06-19T03:37:04.128Z,23.80
2018-06-19T03:39:32.213Z,23.70
2018-06-19T03:42:00.259Z,23.70
2018-06-19T03:44:28.303Z,23.70
2018-06-19T03:46:56.356Z,23.70
2018-06-19T03:49:24.518Z,23.70
2018-06-19T03:51:52.676Z,23.70
2018-06-19T03:54:20.737Z,23.70
2018-06-19T03:56:48.844Z,23.70
2018-06-19T03:59:16.944Z,23.70
2018-06-19T04:01:45.052Z,23.70
2018-06-19T04:04:13.582Z,23.70
2018-06-19T04:06:41.705Z,23.70
2018-06-19T04:09:09.781Z,23.70
2018-06-19T04:11:38.072Z,23.70
2018-06-19T04:14:06.147Z,23.70
2018-06-19T04:16:34.327Z,23.70
2018-06-19T04:19:02.379Z,23.70
2018-06-19T04:21:30.611Z,23.70
2018-06-19T04:23:58.700Z,23.70
2018-06-19T04:26:26.744Z,23.70
2018-06-19T04:28:55.081Z,23.70
2018-06-19T04:31:23.149Z,23.70
2018-06-19T04:33:51.301Z,23.70
2018-06-19T04:36:19.413Z,23.70
2018-06-19T04:38:47.521Z,23.70
2018-06-19T04:41:15.855Z,23.70
2018-06-19T04:43:43.970Z,23.70
2018-06-19T04:46:12.074Z,23.70
2018-06-19T04:48:40.154Z,23.70
2018-06-19T04:51:08.224Z,23.70
2018-06-19T04:53:36.327Z,23.70
2018-06-19T04:56:04.572Z,23.70
2018-06-19T05:03:28.349Z,23.70
2018-06-19T05:05:56.473Z,23.70
2018-06-19T05:08:24.724Z,23.70
2018-06-19T05:10:52.816Z,23.70
2018-06-19T05:13:20.995Z,23.70
2018-06-19T05:15:49.068Z,23.70
2018-06-19T05:18:17.192Z,23.70
2018-06-19T05:20:45.308Z,23.70
2018-06-19T05:25:41.321Z,23.70
2018-06-19T05:28:09.393Z,23.70
2018-06-19T05:30:37.476Z,23.70
2018-06-19T05:33:05.692Z,23.70
2018-06-19T05:35:33.863Z,23.70
2018-06-19T05:38:01.976Z,23.70
2018-06-19T05:40:30.064Z,23.70
2018-06-19T05:42:58.224Z,23.70
2018-06-19T05:45:26.284Z,23.70
2018-06-19T05:47:54.350Z,23.70
2018-06-19T05:50:22.419Z,23.70
2018-06-19T05:52:50.656Z,23.70
2018-06-19T05:55:18.742Z,23.70
2018-06-19T05:57:47.029Z,23.70
2018-06-19T06:00:15.317Z,23.70
2018-06-19T06:02:43.453Z,23.70
2018-06-19T06:05:11.533Z,23.70
2018-06-19T06:07:39.592Z,23.70
2018-06-19T06:10:07.659Z,23.70
2018-06-19T06:12:35.735Z,23.70
2018-06-19T06:15:03.832Z,23.70
2018-06-19T06:17:31.962Z,23.70
2018-06-19T06:20:00.055Z,23.70
2018-06-19T06:22:28.143Z,23.70
2018-06-19T06:24:56.440Z,23.70
2018-06-19T06:27:24.498Z,23.70
2018-06-19T06:29:52.696Z,23.70
2018-06-19T06:32:20.812Z,23.70
2018-06-19T06:34:48.974Z,23.70
2018-06-19T06:37:17.122Z,23.70
2018-06-19T06:39:45.249Z,23.70
2018-06-19T06:42:13.457Z,23.70
2018-06-19T06:44:41.535Z,23.70
2018-06-19T06:47:09.616Z,23.70
2018-06-19T06:49:37.730Z,23.70
2018-06-19T06:52:05.954Z,23.70
2018-06-19T06:54:34.116Z,23.70
2018-06-19T06:57:02.232Z,23.70
2018-06-19T06:59:31.001Z,23.70
2018-06-19T07:01:59.064Z,23.70
2018-06-19T07:04:27.352Z,23.70
2018-06-19T07:06:55.420Z,23.70
2018-06-19T07:09:23.536Z,23.70
2018-06-19T07:11:51.615Z,23.70
2018-06-19T07:14:19.731Z,23.80
2018-06-19T07:16:47.947Z,23.80
2018-06-19T07:19:16.069Z,23.80
2018-06-19T07:21:44.489Z,23.80
2018-06-19T07:26:40.768Z,23.80
2018-06-19T07:29:08.921Z,23.80
2018-06-19T07:31:37.058Z,23.80
2018-06-19T07:34:05.140Z,23.80
2018-06-19T07:39:01.128Z,23.80
2018-06-19T07:41:29.209Z,23.80
2018-06-19T07:43:57.471Z,23.80
2018-06-19T07:46:25.487Z,23.80
2018-06-19T07:48:53.696Z,23.90
2018-06-19T07:51:21.800Z,23.90
2018-06-19T07:53:49.913Z,23.80
2018-06-19T07:56:18.029Z,23.80
2018-06-19T07:58:46.149Z,23.80
2018-06-19T08:01:14.314Z,23.90
2018-06-19T08:03:42.426Z,23.90
2018-06-19T08:06:10.484Z,23.80
2018-06-19T08:08:38.539Z,23.80
2018-06-19T08:11:06.600Z,23.80
2018-06-19T08:13:34.681Z,23.80
2018-06-19T08:16:02.742Z,23.80
2018-06-19T08:18:30.817Z,23.80
2018-06-19T08:20:58.896Z,23.90
2018-06-19T08:23:26.964Z,23.90
2018-06-19T08:25:55.060Z,23.80
2018-06-19T08:28:23.200Z,23.80
2018-06-19T08:30:51.280Z,23.80
2018-06-19T08:33:19.381Z,23.90
2018-06-19T08:35:47.513Z,23.80
2018-06-19T08:38:15.658Z,23.80
2018-06-19T08:40:43.962Z,23.80
2018-06-19T08:43:12.017Z,23.80
2018-06-19T08:45:40.081Z,23.90
2018-06-19T08:48:08.156Z,23.80
2018-06-19T08:50:36.204Z,23.80
2018-06-19T08:53:04.305Z,23.80
2018-06-19T08:55:32.373Z,23.80
2018-06-19T08:58:00.430Z,23.90
2018-06-19T09:00:28.517Z,23.90
2018-06-19T09:02:56.583Z,23.90
2018-06-19T09:05:24.646Z,23.90
2018-06-19T09:07:52.810Z,23.80
2018-06-19T09:10:20.955Z,23.80
2018-06-19T09:15:17.125Z,23.80
2018-06-19T09:17:45.463Z,23.80
2018-06-19T09:20:13.600Z,23.80
2018-06-19T09:22:41.620Z,23.80
2018-06-19T09:25:09.923Z,23.80
2018-06-19T09:27:37.992Z,23.90
2018-06-19T09:30:06.069Z,23.80
2018-06-19T09:32:34.430Z,23.80
2018-06-19T09:35:02.473Z,23.90
2018-06-19T09:37:30.540Z,23.90
2018-06-19T09:39:58.608Z,23.90
2018-06-19T09:42:26.673Z,23.80
2018-06-19T09:44:54.742Z,23.80
2018-06-19T09:47:22.889Z,23.90
2018-06-19T09:49:51.056Z,23.90
2018-06-19T09:52:19.128Z,23.80
2018-06-19T09:54:47.241Z,23.90
2018-06-19T09:57:15.446Z,23.90
2018-06-19T09:59:43.739Z,23.90
2018-06-19T10:02:12.514Z,23.90
2018-06-19T10:04:40.568Z,23.90
2018-06-19T10:07:08.629Z,23.90
2018-06-19T10:09:36.768Z,23.90
2018-06-19T10:12:04.900Z,23.90
2018-06-19T10:14:32.893Z,23.90
2018-06-19T10:17:01.032Z,23.90
2018-06-19T10:19:29.235Z,23.90
2018-06-19T10:21:57.386Z,23.90
2018-06-19T10:24:25.637Z,23.90
2018-06-19T10:26:53.764Z,23.90
2018-06-19T10:29:21.949Z,23.90
2018-06-19T10:31:51.141Z,23.90
2018-06-19T10:34:19.442Z,23.90
2018-06-19T10:36:47.623Z,23.90
2018-06-19T10:39:15.877Z,23.90
2018-06-19T10:41:44.356Z,23.90
2018-06-19T10:44:12.483Z,23.90
2018-06-19T10:46:40.633Z,23.90
2018-06-19T10:49:08.721Z,23.90
2018-06-19T10:51:36.796Z,23.90
2018-06-19T10:54:05.060Z,23.90
2018-06-19T10:56:33.188Z,23.90
2018-06-19T10:59:01.361Z,23.90
2018-06-19T11:01:29.348Z,24.00
2018-06-19T11:03:57.447Z,24.00
2018-06-19T11:06:25.652Z,24.00
2018-06-19T11:08:54.222Z,24.00
2018-06-19T11:11:22.352Z,24.00
2018-06-19T11:13:50.480Z,24.00
2018-06-19T11:16:18.780Z,24.00
2018-06-19T11:18:46.918Z,24.10
2018-06-19T11:21:15.026Z,24.10
2018-06-19T11:26:11.077Z,24.10
2018-06-19T11:28:39.349Z,24.10
2018-06-19T11:31:07.600Z,24.10
2018-06-19T11:33:35.677Z,24.10
2018-06-19T11:36:03.809Z,24.10
2018-06-19T11:38:31.940Z,24.10
2018-06-19T11:40:59.989Z,24.10
2018-06-19T11:43:28.089Z,24.10
2018-06-19T11:45:56.160Z,24.10
2018-06-19T11:48:24.224Z,24.20
2018-06-19T11:50:52.351Z,24.20
2018-06-19T11:53:20.409Z,24.20
2018-06-19T11:55:48.508Z,24.20
2018-06-19T11:58:16.596Z,24.20
2018-06-19T12:03:12.653Z,24.30
2018-06-19T12:05:40.904Z,24.30
2018-06-19T12:08:09.999Z,24.30
2018-06-19T12:10:38.170Z,24.40
2018-06-19T12:15:34.352Z,24.40
2018-06-19T12:18:02.408Z,24.50
2018-06-19T12:20:30.491Z,24.50
2018-06-19T12:22:58.847Z,24.50
2018-06-19T12:25:26.934Z,24.60
2018-06-19T12:27:55.212Z,24.70
2018-06-19T12:30:23.344Z,24.70
2018-06-19T12:32:58.076Z,24.70
2018-06-19T12:35:26.153Z,24.80
2018-06-19T12:37:54.233Z,24.70
2018-06-19T12:40:22.333Z,24.70
2018-06-19T12:42:50.403Z,24.80
2018-06-19T12:45:18.489Z,24.80
2018-06-19T12:47:46.577Z,24.80
2018-06-19T12:50:36.764Z,24.80
2018-06-19T12:53:17.332Z,24.80
2018-06-19T12:55:57.500Z,24.80
2018-06-19T12:58:25.570Z,24.80
2018-06-19T13:00:53.656Z,24.80
2018-06-19T13:03:33.355Z,24.80
2018-06-19T13:06:12.908Z,24.80
2018-06-19T13:08:41.008Z,24.80
2018-06-19T13:11:09.540Z,24.80
2018-06-19T14:38:21.530Z,24.80
2018-06-19T14:40:49.703Z,24.20
2018-06-19T14:43:17.781Z,24.20
2018-06-19T14:45:45.852Z,24.20
2018-06-19T14:50:47.126Z,24.30
2018-06-19T14:53:15.312Z,24.30
2018-06-19T14:55:43.441Z,24.30
2018-06-19T15:00:39.672Z,24.40
2018-06-19T15:03:08.001Z,24.40
2018-06-19T15:05:37.312Z,24.40
2018-06-19T15:08:06.509Z,24.40
2018-06-19T15:10:34.687Z,24.50
2018-06-19T15:13:02.740Z,24.40
2018-06-19T15:15:30.850Z,24.50
2018-06-19T15:17:58.896Z,24.50
2018-06-19T15:20:26.989Z,24.50
2018-06-19T15:22:55.077Z,24.50
2018-06-19T15:25:23.133Z,24.50
2018-06-19T15:27:51.310Z,24.50
2018-06-19T15:30:19.404Z,24.50
2018-06-19T15:32:47.521Z,24.50
2018-06-19T15:35:15.608Z,24.50
2018-06-19T15:37:43.755Z,24.50
2018-06-19T15:40:11.949Z,24.50
2018-06-19T15:42:40.217Z,24.50
2018-06-19T15:45:08.355Z,24.40
2018-06-19T15:47:36.528Z,24.50
2018-06-19T15:50:04.944Z,24.50
2018-06-19T15:52:33.037Z,24.50
2018-06-19T15:55:01.104Z,24.50
2018-06-19T15:57:29.194Z,24.40
2018-06-19T15:59:57.264Z,24.40
2018-06-19T16:02:25.320Z,24.40
2018-06-19T16:04:53.423Z,24.40
2018-06-19T16:07:21.536Z,24.40
2018-06-19T16:09:49.714Z,24.40
2018-06-19T16:12:17.769Z,24.40
2018-06-19T16:14:45.935Z,24.40
2018-06-19T16:17:14.038Z,24.40
2018-06-19T16:19:42.217Z,24.40
2018-06-19T16:22:10.525Z,24.40
2018-06-19T16:24:38.732Z,24.40
2018-06-19T16:27:06.883Z,24.30
2018-06-19T16:29:35.152Z,24.30
2018-06-19T16:32:03.291Z,24.30
2018-06-19T16:34:31.363Z,24.30
2018-06-19T16:36:59.561Z,24.30
2018-06-19T16:39:27.629Z,24.30
2018-06-19T16:41:55.716Z,24.30
2018-06-19T16:44:23.852Z,24.30
2018-06-19T16:46:52.017Z,24.30
2018-06-19T16:49:20.087Z,24.30
2018-06-19T16:51:48.141Z,24.30
2018-06-19T16:54:16.217Z,24.30
2018-06-19T16:56:44.292Z,24.30
2018-06-19T16:59:12.356Z,24.30
2018-06-19T17:04:08.420Z,24.30
2018-06-19T17:06:36.555Z,24.30
2018-06-19T17:09:06.672Z,24.30
2018-06-19T17:11:34.850Z,24.30
2018-06-19T17:14:03.032Z,24.30
2018-06-19T17:16:31.120Z,24.30
2018-06-19T17:18:59.302Z,24.30
2018-06-19T17:21:27.459Z,24.30
2018-06-19T17:23:55.486Z,24.30
2018-06-19T17:26:23.577Z,24.30
2018-06-19T17:28:51.640Z,24.30
2018-06-19T17:31:19.752Z,24.30
2018-06-19T17:33:47.825Z,24.30
2018-06-19T17:36:15.894Z,24.30
2018-06-19T17:38:44.084Z,24.30
2018-06-19T17:41:12.268Z,24.30
2018-06-19T17:43:40.460Z,24.30
2018-06-19T17:46:08.576Z,24.20
2018-06-19T17:48:36.733Z,24.30
2018-06-19T17:51:06.108Z,24.20
2018-06-19T17:53:34.180Z,24.30
2018-06-19T17:56:02.237Z,24.20
2018-06-19T17:58:30.320Z,24.30
2018-06-19T18:00:58.413Z,24.30
2018-06-19T18:03:26.466Z,24.30
2018-06-19T18:05:54.616Z,24.30
2018-06-19T18:08:22.804Z,24.30
2018-06-19T18:10:50.973Z,24.30
2018-06-19T18:13:19.039Z,24.20
2018-06-19T18:15:47.196Z,24.30
2018-06-19T18:18:15.371Z,24.30
2018-06-19T18:20:43.436Z,24.20
2018-06-19T18:23:11.535Z,24.30
2018-06-19T18:25:39.633Z,24.20
2018-06-19T18:28:07.908Z,24.20
2018-06-19T18:30:36.072Z,24.20
2018-06-19T18:33:04.144Z,24.20
2018-06-19T18:35:32.208Z,24.20
2018-06-19T18:38:00.273Z,24.20
2018-06-19T18:40:28.425Z,24.20
2018-06-19T18:42:56.583Z,24.20
2018-06-19T18:45:24.680Z,24.20
2018-06-19T18:47:52.741Z,24.10
2018-06-19T18:50:20.922Z,24.20
2018-06-19T18:52:48.997Z,24.10
2018-06-19T18:55:17.102Z,24.20
2018-06-19T18:57:45.176Z,24.20
2018-06-19T19:00:13.386Z,24.10
2018-06-19T19:02:41.564Z,24.10
2018-06-19T19:05:09.672Z,24.10
2018-06-19T19:07:37.770Z,24.10
2018-06-19T19:11:11.313Z,24.10
2018-06-19T19:13:39.433Z,24.10
2018-06-19T19:16:12.982Z,24.10
2018-06-19T19:18:46.497Z,24.00
2018-06-19T19:23:42.501Z,24.00
2018-06-19T19:26:10.551Z,24.00
2018-06-19T19:28:44.069Z,24.00
2018-06-19T19:31:12.196Z,24.00
2018-06-19T19:33:40.281Z,24.00
2018-06-19T19:36:12.717Z,24.00
2018-06-19T19:38:46.386Z,24.00
2018-06-19T19:41:14.512Z,24.00
2018-06-19T19:43:42.624Z,24.00
2018-06-19T19:46:14.952Z,24.00
2018-06-19T19:48:48.629Z,24.00
2018-06-19T19:51:16.692Z,23.90
2018-06-19T19:53:44.768Z,23.90
2018-06-19T19:56:18.510Z,23.90
2018-06-19T20:01:18.720Z,23.90
2018-06-19T20:03:47.203Z,23.90
2018-06-19T20:06:15.361Z,23.90
2018-06-19T20:08:43.408Z,23.90
2018-06-19T20:11:11.482Z,23.90
2018-06-19T20:13:39.708Z,23.90
2018-06-19T20:16:07.781Z,23.90
2018-06-19T20:18:36.008Z,23.80
2018-06-19T20:21:04.211Z,23.90
2018-06-19T20:23:32.277Z,23.90
2018-06-19T20:26:00.484Z,23.80
2018-06-19T20:28:28.528Z,23.80
2018-06-19T20:30:56.741Z,23.80
2018-06-19T20:33:24.828Z,23.80
2018-06-19T20:35:52.920Z,23.80
2018-06-19T20:38:21.009Z,23.80
2018-06-19T20:40:49.154Z,23.80
2018-06-19T20:43:17.237Z,23.80
2018-06-19T20:45:45.270Z,23.80
2018-06-19T20:48:13.402Z,23.80
2018-06-19T20:50:41.536Z,23.80
2018-06-19T20:53:09.608Z,23.80
2018-06-19T20:55:37.716Z,23.80
2018-06-19T20:58:05.999Z,23.80
2018-06-19T21:00:34.062Z,23.80
2018-06-19T21:03:02.145Z,23.80
2018-06-19T21:05:30.242Z,23.80
2018-06-19T21:07:58.304Z,23.70
2018-06-19T21:10:26.376Z,23.70
2018-06-19T21:12:54.490Z,23.70
2018-06-19T21:15:22.556Z,23.70
2018-06-19T21:17:50.628Z,23.70
2018-06-19T21:20:18.771Z,23.70
2018-06-19T21:22:46.832Z,23.70
2018-06-19T21:25:15.039Z,23.70
2018-06-19T21:27:43.136Z,23.70
2018-06-19T21:30:11.226Z,23.70
2018-06-19T21:32:39.372Z,23.70
2018-06-19T21:35:07.492Z,23.70
2018-06-19T21:37:35.625Z,23.70
2018-06-19T21:40:03.777Z,23.70
2018-06-19T21:42:31.936Z,23.70
2018-06-19T21:44:59.984Z,23.70
2018-06-19T21:47:28.086Z,23.70
2018-06-19T21:49:56.136Z,23.70
2018-06-19T21:52:24.248Z,23.70
2018-06-19T21:54:52.457Z,23.70
2018-06-19T21:57:20.575Z,23.70
2018-06-19T21:59:48.640Z,23.60
2018-06-19T22:04:50.088Z,23.60
2018-06-19T22:07:18.196Z,23.60
2018-06-19T22:09:46.260Z,23.60
2018-06-19T22:12:14.356Z,23.60
2018-06-19T22:14:42.456Z,23.60
2018-06-19T22:17:10.537Z,23.60
2018-06-19T22:19:38.685Z,23.60
2018-06-19T22:22:06.828Z,23.60
2018-06-19T22:24:34.935Z,23.60
2018-06-19T22:27:03.012Z,23.60
2018-06-19T22:29:31.065Z,23.60
2018-06-19T22:31:59.147Z,23.60
2018-06-19T22:34:27.224Z,23.60
2018-06-19T22:36:55.296Z,23.60
2018-06-19T22:39:23.356Z,23.60
2018-06-19T22:41:51.463Z,23.60
2018-06-19T22:44:19.544Z,23.60
2018-06-19T22:46:47.608Z,23.60
2018-06-19T22:49:15.687Z,23.60
2018-06-19T22:51:43.763Z,23.60
2018-06-19T22:56:39.773Z,23.60
2018-06-19T22:59:07.925Z,23.50
2018-06-19T23:01:36.091Z,23.50
2018-06-19T23:04:04.383Z,23.50
2018-06-19T23:06:32.438Z,23.50
2018-06-19T23:09:00.518Z,23.50
2018-06-19T23:11:28.604Z,23.50
2018-06-19T23:13:56.672Z,23.50
2018-06-19T23:16:24.728Z,23.50
2018-06-19T23:18:52.841Z,23.50
2018-06-19T23:21:20.892Z,23.50
2018-06-19T23:23:49.005Z,23.50
2018-06-19T23:26:17.090Z,23.50
2018-06-19T23:28:45.152Z,23.50
2018-06-19T23:31:13.223Z,23.50
2018-06-19T23:33:41.281Z,23.50
2018-06-19T23:38:37.330Z,23.50
2018-06-19T23:41:05.464Z,23.50
2018-06-19T23:43:33.533Z,23.50
2018-06-19T23:46:01.601Z,23.50
2018-06-19T23:48:29.659Z,23.50
2018-06-19T23:50:57.724Z,23.50
2018-06-19T23:53:25.785Z,23.40
2018-06-19T23:55:53.836Z,23.50
2018-06-19T23:58:21.924Z,23.50
